createdAt,value
2018-08-22T00:00:50.182Z,7.53
2018-08-22T00:03:20.915Z,7.15
2018-08-22T00:05:53.548Z,7.10
2018-08-22T00:08:29.764Z,6.92
2018-08-22T00:11:00.444Z,7.10
2018-08-22T00:13:33.593Z,7.33
2018-08-22T00:16:04.270Z,6.72
2018-08-22T00:18:34.616Z,6.90
2018-08-22T00:21:06.527Z,6.70
2018-08-22T00:23:37.211Z,7.00
2018-08-22T00:26:07.821Z,7.13
2018-08-22T00:28:38.700Z,7.10
2018-08-22T00:31:09.313Z,7.28
2018-08-22T00:33:40.065Z,7.00
2018-08-22T00:36:11.711Z,7.10
2018-08-22T00:38:43.199Z,7.10
2018-08-22T00:41:15.657Z,6.75
2018-08-22T00:43:46.178Z,6.37
2018-08-22T00:46:17.158Z,6.67
2018-08-22T00:48:47.373Z,6.72
2018-08-22T00:51:19.711Z,6.80
2018-08-22T00:53:50.592Z,6.50
2018-08-22T00:56:20.709Z,6.37
2018-08-22T00:58:51.763Z,6.12
2018-08-22T01:01:22.398Z,5.87
2018-08-22T01:03:54.023Z,6.28
2018-08-22T01:06:24.550Z,6.35
2018-08-22T01:08:55.626Z,7.12
2018-08-22T01:11:26.381Z,6.35
2018-08-22T01:13:57.653Z,6.97
2018-08-22T01:16:28.793Z,6.28
2018-08-22T01:18:58.823Z,6.30
2018-08-22T01:21:29.590Z,6.20
2018-08-22T01:23:59.721Z,6.53
2018-08-22T01:26:31.425Z,6.00
2018-08-22T01:29:01.505Z,6.05
2018-08-22T01:31:31.795Z,6.00
2018-08-22T01:34:02.907Z,6.10
2018-08-22T01:36:33.287Z,6.83
2018-08-22T01:39:04.130Z,6.58
2018-08-22T01:41:35.524Z,6.62
2018-08-22T01:44:05.609Z,7.23
2018-08-22T01:46:38.133Z,7.83
2018-08-22T01:49:08.527Z,7.25
2018-08-22T01:51:41.119Z,7.08
2018-08-22T01:54:11.585Z,7.50
2018-08-22T01:56:42.422Z,7.15
2018-08-22T01:59:13.163Z,7.13
2018-08-22T02:01:43.884Z,6.90
2018-08-22T02:04:14.057Z,6.70
2018-08-22T02:06:44.741Z,7.15
2018-08-22T02:09:15.035Z,5.72
2018-08-22T02:11:45.792Z,5.78
2018-08-22T02:14:17.206Z,6.10
2018-08-22T02:16:47.644Z,5.77
2018-08-22T02:19:18.328Z,6.20
2018-08-22T02:21:48.754Z,6.03
2018-08-22T02:24:19.891Z,6.00
2018-08-22T02:26:50.035Z,7.03
2018-08-22T02:29:20.352Z,6.53
2018-08-22T02:31:51.877Z,6.85
2018-08-22T02:34:23.257Z,7.08
2018-08-22T02:36:53.335Z,7.30
2018-08-22T02:39:24.545Z,7.40
2018-08-22T02:41:55.242Z,7.47
2018-08-22T02:44:26.186Z,6.60
2018-08-22T02:46:57.190Z,6.72
2018-08-22T02:49:30.843Z,6.03
2018-08-22T02:52:02.186Z,6.10
2018-08-22T02:54:33.202Z,6.08
2018-08-22T02:57:03.597Z,5.80
2018-08-22T02:59:34.884Z,5.78
2018-08-22T03:02:06.300Z,5.72
2018-08-22T03:04:37.928Z,5.20
2018-08-22T03:07:08.962Z,5.75
2018-08-22T03:09:39.896Z,5.87
2018-08-22T03:12:13.902Z,5.80
2018-08-22T03:14:45.038Z,6.20
2018-08-22T03:17:15.148Z,6.42
2018-08-22T03:19:45.759Z,6.35
2018-08-22T03:22:16.904Z,6.03
2018-08-22T03:24:47.107Z,6.53
2018-08-22T03:27:18.068Z,6.58
2018-08-22T03:29:48.768Z,6.70
2018-08-22T03:32:20.164Z,6.60
2018-08-22T03:34:51.078Z,7.12
2018-08-22T03:37:21.422Z,7.78
2018-08-22T03:39:51.854Z,7.37
2018-08-22T03:42:22.032Z,6.58
2018-08-22T03:44:52.734Z,6.00
2018-08-22T03:47:23.297Z,5.83
2018-08-22T03:49:53.654Z,5.85
2018-08-22T03:52:26.370Z,5.72
2018-08-22T03:54:57.190Z,5.70
2018-08-22T03:57:27.598Z,5.65
2018-08-22T03:59:59.155Z,5.72
2018-08-22T04:02:30.538Z,5.80
2018-08-22T04:05:00.629Z,5.47
2018-08-22T04:07:31.546Z,6.33
2018-08-22T04:10:02.258Z,6.40
2018-08-22T04:12:33.372Z,7.30
2018-08-22T04:15:05.566Z,7.80
2018-08-22T04:17:40.292Z,11.03
2018-08-22T04:20:10.856Z,9.83
2018-08-22T04:22:42.667Z,9.50
2018-08-22T04:25:13.421Z,8.60
2018-08-22T04:27:44.486Z,7.37
2018-08-22T04:30:15.736Z,7.45
2018-08-22T04:32:46.823Z,6.72
2018-08-22T04:35:17.490Z,6.30
2018-08-22T04:37:47.650Z,5.95
2018-08-22T04:40:20.973Z,6.65
2018-08-22T04:42:51.690Z,6.60
2018-08-22T04:45:23.580Z,8.13
2018-08-22T04:47:53.826Z,7.72
2018-08-22T04:50:26.437Z,7.27
2018-08-22T04:52:56.756Z,7.37
2018-08-22T04:55:28.431Z,7.40
2018-08-22T04:57:59.737Z,5.92
2018-08-22T05:00:32.198Z,6.60
2018-08-22T05:03:04.583Z,5.53
2018-08-22T05:05:37.024Z,6.20
2018-08-22T05:08:08.810Z,5.97
2018-08-22T05:10:39.466Z,5.62
2018-08-22T05:13:10.546Z,6.57
2018-08-22T05:15:40.968Z,7.92
2018-08-22T05:18:12.086Z,12.25
2018-08-22T05:20:43.201Z,18.07
2018-08-22T05:23:13.892Z,35.35
2018-08-22T05:25:44.336Z,9.58
2018-08-22T05:28:15.106Z,6.70
2018-08-22T05:30:46.068Z,7.97
2018-08-22T05:33:16.693Z,6.00
2018-08-22T05:35:48.708Z,10.32
2018-08-22T05:38:18.910Z,5.80
2018-08-22T05:40:49.582Z,6.08
2018-08-22T05:43:19.675Z,5.70
2018-08-22T05:45:50.481Z,5.60
2018-08-22T05:48:22.335Z,5.53
2018-08-22T05:50:52.868Z,7.40
2018-08-22T05:53:23.475Z,5.70
2018-08-22T05:55:53.579Z,6.00
2018-08-22T05:58:25.238Z,5.35
2018-08-22T06:00:55.471Z,9.05
2018-08-22T06:03:26.203Z,5.92
2018-08-22T06:05:57.164Z,6.87
2018-08-22T06:08:28.209Z,5.03
2018-08-22T06:10:59.048Z,5.10
2018-08-22T06:13:29.164Z,4.70
2018-08-22T06:16:01.215Z,4.95
2018-08-22T06:18:31.903Z,4.72
2018-08-22T06:21:03.438Z,4.75
2018-08-22T06:23:34.376Z,4.62
2018-08-22T06:26:04.555Z,4.03
2018-08-22T06:28:35.590Z,4.25
2018-08-22T06:31:06.629Z,5.45
2018-08-22T06:33:38.184Z,4.22
2018-08-22T06:36:10.700Z,3.98
2018-08-22T06:38:41.945Z,3.87
2018-08-22T06:41:13.448Z,4.00
2018-08-22T06:43:45.235Z,4.00
2018-08-22T06:46:15.644Z,4.10
2018-08-22T06:48:46.966Z,3.65
2018-08-22T06:51:18.093Z,4.47
2018-08-22T06:53:48.792Z,4.20
2018-08-22T06:56:20.116Z,4.40
2018-08-22T06:58:50.817Z,3.80
2018-08-22T07:01:21.384Z,4.20
2018-08-22T07:03:52.134Z,3.92
2018-08-22T07:06:23.770Z,3.87
2018-08-22T07:08:54.950Z,3.92
2018-08-22T07:11:25.546Z,4.17
2018-08-22T07:13:55.720Z,4.10
2018-08-22T07:16:26.300Z,3.83
2018-08-22T07:18:56.409Z,4.33
2018-08-22T07:21:27.514Z,4.40
2018-08-22T07:23:58.882Z,4.80
2018-08-22T07:26:30.395Z,4.25
2018-08-22T07:29:01.983Z,4.42
2018-08-22T07:31:32.729Z,3.92
2018-08-22T07:34:04.369Z,4.28
2018-08-22T07:36:35.889Z,4.00
2018-08-22T07:39:12.317Z,3.87
2018-08-22T07:41:43.938Z,4.62
2018-08-22T07:44:15.099Z,4.12
2018-08-22T07:46:45.834Z,4.22
2018-08-22T07:49:16.321Z,4.15
2018-08-22T07:51:47.949Z,6.00
2018-08-22T07:54:19.671Z,4.53
2018-08-22T07:56:50.417Z,12.05
2018-08-22T07:59:21.604Z,4.30
2018-08-22T08:01:52.355Z,3.67
2018-08-22T08:04:22.727Z,4.03
2018-08-22T08:06:53.721Z,3.85
2018-08-22T08:09:24.167Z,3.90
2018-08-22T08:11:55.920Z,4.83
2018-08-22T08:14:26.507Z,3.70
2018-08-22T08:16:57.768Z,4.60
2018-08-22T08:19:28.741Z,4.80
2018-08-22T08:22:00.255Z,5.60
2018-08-22T08:24:30.807Z,4.40
2018-08-22T08:27:02.182Z,4.53
2018-08-22T08:29:33.356Z,4.30
2018-08-22T08:32:03.783Z,4.90
2018-08-22T08:34:35.725Z,4.50
2018-08-22T08:37:05.947Z,4.95
2018-08-22T08:39:38.879Z,4.37
2018-08-22T08:42:09.739Z,4.25
2018-08-22T08:44:41.822Z,4.60
2018-08-22T08:47:13.003Z,4.73
2018-08-22T08:49:44.236Z,4.30
2018-08-22T08:52:14.434Z,5.03
2018-08-22T08:54:46.639Z,4.62
2018-08-22T08:57:17.867Z,4.97
2018-08-22T08:59:48.162Z,4.65
2018-08-22T09:02:19.847Z,4.83
2018-08-22T09:04:51.493Z,4.78
2018-08-22T09:07:22.770Z,4.80
2018-08-22T09:09:53.234Z,4.70
2018-08-22T09:12:23.555Z,4.97
2018-08-22T09:17:24.914Z,4.35
2018-08-22T09:19:55.605Z,4.80
2018-08-22T09:22:26.014Z,6.30
2018-08-22T09:24:57.958Z,5.10
2018-08-22T09:27:28.194Z,5.17
2018-08-22T09:30:00.149Z,4.92
2018-08-22T09:32:30.685Z,6.50
2018-08-22T09:35:02.016Z,4.77
2018-08-22T09:37:33.516Z,4.50
2018-08-22T09:40:04.407Z,4.55
2018-08-22T09:42:36.358Z,4.75
2018-08-22T09:45:06.598Z,5.00
2018-08-22T09:47:37.838Z,4.73
2018-08-22T09:50:09.442Z,4.90
2018-08-22T09:52:41.106Z,5.10
2018-08-22T09:55:12.254Z,4.30
2018-08-22T09:57:44.213Z,5.40
2018-08-22T10:00:19.741Z,4.72
2018-08-22T10:02:51.161Z,4.75
2018-08-22T10:05:21.225Z,4.50
2018-08-22T10:07:52.240Z,4.57
2018-08-22T10:10:22.627Z,4.87
2018-08-22T10:12:52.794Z,4.15
2018-08-22T10:15:22.955Z,4.20
2018-08-22T10:17:55.210Z,4.67
2018-08-22T10:20:26.968Z,4.33
2018-08-22T10:22:58.422Z,4.42
2018-08-22T10:25:28.870Z,4.50
2018-08-22T10:28:00.522Z,4.33
2018-08-22T10:30:30.673Z,5.10
2018-08-22T10:33:02.117Z,4.70
2018-08-22T10:35:32.742Z,4.35
2018-08-22T10:38:03.369Z,5.15
2018-08-22T10:40:34.718Z,4.62
2018-08-22T10:43:05.782Z,4.55
2018-08-22T10:45:36.090Z,4.60
2018-08-22T10:48:06.367Z,4.50
2018-08-22T10:50:37.464Z,4.53
2018-08-22T10:53:08.080Z,5.03
2018-08-22T10:55:38.504Z,4.97
2018-08-22T10:58:08.525Z,5.00
2018-08-22T11:00:40.212Z,4.90
2018-08-22T11:03:11.704Z,5.28
2018-08-22T11:05:42.776Z,5.00
2018-08-22T11:08:14.752Z,5.00
2018-08-22T11:10:45.451Z,5.00
2018-08-22T11:13:15.689Z,4.85
2018-08-22T11:15:47.292Z,5.20
2018-08-22T11:18:17.984Z,4.65
2018-08-22T11:20:50.787Z,4.72
2018-08-22T11:23:33.465Z,4.67
2018-08-22T11:26:16.189Z,4.85
2018-08-22T11:28:57.730Z,4.83
2018-08-22T11:31:41.463Z,4.78
2018-08-22T11:34:24.832Z,5.10
2018-08-22T11:37:17.793Z,5.17
2018-08-22T11:39:49.274Z,5.00
2018-08-22T11:42:21.141Z,5.20
2018-08-22T11:44:51.315Z,4.90
2018-08-22T11:47:23.709Z,5.05
2018-08-22T11:49:54.109Z,5.10
2018-08-22T11:52:25.109Z,4.92
2018-08-22T11:54:55.736Z,4.97
2018-08-22T11:57:26.828Z,4.72
2018-08-22T11:59:57.235Z,4.85
2018-08-22T12:02:27.900Z,5.10
2018-08-22T12:04:58.077Z,4.60
2018-08-22T12:07:29.906Z,4.83
2018-08-22T12:10:01.103Z,4.70
2018-08-22T12:12:33.055Z,5.65
2018-08-22T12:15:03.711Z,6.20
2018-08-22T12:17:34.097Z,4.95
2018-08-22T12:20:04.799Z,5.12
2018-08-22T12:22:36.305Z,4.80
2018-08-22T12:25:07.017Z,4.80
2018-08-22T12:27:38.402Z,4.80
2018-08-22T12:30:10.779Z,4.80
2018-08-22T12:32:41.015Z,4.78
2018-08-22T12:35:11.716Z,4.78
2018-08-22T12:37:43.108Z,4.65
2018-08-22T12:40:15.147Z,4.55
2018-08-22T12:42:45.555Z,4.60
2018-08-22T12:45:17.789Z,4.80
2018-08-22T12:47:48.751Z,4.80
2018-08-22T12:50:19.801Z,4.50
2018-08-22T12:52:50.476Z,3.80
2018-08-22T12:55:21.647Z,4.20
2018-08-22T12:57:51.759Z,4.03
2018-08-22T13:00:22.718Z,4.00
2018-08-22T13:02:53.601Z,4.50
2018-08-22T13:05:25.255Z,4.53
2018-08-22T13:07:55.793Z,4.27
2018-08-22T13:10:25.984Z,4.40
2018-08-22T13:12:56.654Z,4.22
2018-08-22T13:15:27.385Z,4.20
2018-08-22T13:17:57.909Z,4.30
2018-08-22T13:20:28.434Z,4.40
2018-08-22T13:22:59.546Z,4.62
2018-08-22T13:25:30.620Z,4.70
2018-08-22T13:28:01.094Z,5.00
2018-08-22T13:30:32.354Z,4.80
2018-08-22T13:33:05.180Z,5.15
2018-08-22T13:35:36.120Z,4.90
2018-08-22T13:38:07.622Z,4.60
2018-08-22T13:40:37.896Z,4.42
2018-08-22T13:43:09.726Z,4.30
2018-08-22T13:45:40.788Z,4.58
2018-08-22T13:48:11.795Z,4.30
2018-08-22T13:50:42.422Z,4.40
2018-08-22T13:53:12.737Z,4.25
2018-08-22T13:55:44.282Z,4.00
2018-08-22T13:58:15.327Z,4.20
2018-08-22T14:00:46.038Z,4.37
2018-08-22T14:03:18.464Z,4.40
2018-08-22T14:05:50.177Z,4.25
2018-08-22T14:08:21.326Z,3.90
2018-08-22T14:10:51.783Z,4.00
2018-08-22T14:13:23.079Z,4.00
2018-08-22T14:15:54.252Z,3.72
2018-08-22T14:18:25.340Z,4.47
2018-08-22T14:20:56.306Z,4.20
2018-08-22T14:23:27.396Z,3.83
2018-08-22T14:25:57.874Z,4.30
2018-08-22T14:28:30.963Z,4.12
2018-08-22T14:31:01.859Z,4.08
2018-08-22T14:33:32.528Z,3.87
2018-08-22T14:36:04.136Z,4.33
2018-08-22T14:38:35.031Z,4.07
2018-08-22T14:41:05.276Z,3.83
2018-08-22T14:43:37.647Z,4.37
2018-08-22T14:46:09.880Z,4.20
2018-08-22T14:48:39.974Z,4.78
2018-08-22T14:51:10.120Z,4.90
2018-08-22T14:53:40.589Z,4.92
2018-08-22T14:56:11.197Z,4.97
2018-08-22T14:58:41.862Z,4.80
2018-08-22T15:01:16.057Z,4.78
2018-08-22T15:03:46.125Z,5.15
2018-08-22T15:06:17.344Z,4.80
2018-08-22T15:08:48.397Z,4.85
2018-08-22T15:11:20.254Z,4.85
2018-08-22T15:13:50.525Z,4.55
2018-08-22T15:16:21.592Z,4.58
2018-08-22T15:18:51.949Z,4.80
2018-08-22T15:21:22.107Z,4.40
2018-08-22T15:23:53.265Z,4.65
2018-08-22T15:26:26.049Z,4.92
2018-08-22T15:28:57.211Z,4.53
2018-08-22T15:31:27.477Z,4.67
2018-08-22T15:33:58.095Z,4.67
2018-08-22T15:36:29.064Z,4.65
2018-08-22T15:38:59.246Z,5.28
2018-08-22T15:41:29.772Z,4.70
2018-08-22T15:44:00.095Z,4.37
2018-08-22T15:46:31.599Z,4.70
2018-08-22T15:49:01.689Z,4.40
2018-08-22T15:51:32.601Z,4.90
2018-08-22T15:54:13.694Z,4.80
2018-08-22T15:56:45.085Z,4.83
2018-08-22T15:59:15.829Z,4.62
2018-08-22T16:01:48.583Z,5.35
2018-08-22T16:04:18.764Z,4.33
2018-08-22T16:07:09.711Z,4.47
2018-08-22T16:09:40.716Z,5.37
2018-08-22T16:12:11.235Z,4.90
2018-08-22T16:14:42.064Z,4.58
2018-08-22T16:17:13.309Z,5.08
2018-08-22T16:19:45.159Z,4.75
2018-08-22T16:22:19.643Z,5.10
2018-08-22T16:24:51.026Z,4.90
2018-08-22T16:27:21.244Z,5.08
2018-08-22T16:29:51.352Z,6.23
2018-08-22T16:32:22.051Z,5.40
2018-08-22T16:34:53.747Z,4.80
2018-08-22T16:40:05.819Z,4.70
2018-08-22T16:42:38.464Z,4.47
2018-08-22T16:45:09.450Z,4.58
2018-08-22T16:47:40.133Z,4.92
2018-08-22T16:50:10.615Z,4.70
2018-08-22T16:52:40.769Z,4.80
2018-08-22T16:55:21.070Z,4.58
2018-08-22T16:57:52.800Z,4.83
2018-08-22T17:00:29.901Z,4.80
2018-08-22T17:03:01.053Z,4.72
2018-08-22T17:05:31.829Z,4.85
2018-08-22T17:08:03.859Z,4.90
2018-08-22T17:10:47.184Z,4.70
2018-08-22T17:13:26.582Z,4.80
2018-08-22T17:15:58.170Z,4.50
2018-08-22T17:18:28.970Z,4.67
2018-08-22T17:21:00.176Z,5.05
2018-08-22T17:23:31.384Z,4.80
2018-08-22T17:26:01.968Z,5.00
2018-08-22T17:28:38.495Z,5.05
2018-08-22T17:31:10.323Z,5.50
2018-08-22T17:33:41.833Z,5.37
2018-08-22T17:36:14.839Z,5.00
2018-08-22T17:38:48.829Z,5.00
2018-08-22T17:41:21.873Z,5.35
2018-08-22T17:44:10.961Z,4.80
2018-08-22T17:46:43.873Z,5.10
2018-08-22T17:49:15.031Z,4.92
2018-08-22T17:52:14.545Z,5.45
2018-08-22T17:54:45.969Z,4.90
2018-08-22T17:57:21.531Z,5.42
2018-08-22T17:59:52.687Z,6.07
2018-08-22T18:02:23.663Z,6.17
2018-08-22T18:04:56.713Z,6.25
2018-08-22T18:07:29.283Z,6.47
2018-08-22T18:10:02.798Z,6.47
2018-08-22T18:12:33.307Z,5.50
2018-08-22T18:15:04.867Z,6.50
2018-08-22T18:17:37.150Z,6.17
2018-08-22T18:20:07.452Z,5.65
2018-08-22T18:22:39.789Z,7.03
2018-08-22T18:25:10.718Z,8.13
2018-08-22T18:27:43.149Z,5.70
2018-08-22T18:30:13.781Z,10.72
2018-08-22T18:32:45.928Z,6.60
2018-08-22T18:35:16.407Z,9.50
2018-08-22T18:37:46.669Z,8.73
2018-08-22T18:40:18.956Z,8.50
2018-08-22T18:42:52.817Z,7.97
2018-08-22T18:45:24.114Z,8.43
2018-08-22T18:47:54.269Z,7.15
2018-08-22T18:50:24.859Z,7.45
2018-08-22T18:52:57.177Z,7.03
2018-08-22T18:55:29.577Z,12.60
2018-08-22T18:58:01.401Z,8.50
2018-08-22T19:00:38.543Z,7.75
2018-08-22T19:03:09.156Z,7.15
2018-08-22T19:05:40.411Z,15.80
2018-08-22T19:08:14.996Z,9.88
2018-08-22T19:10:52.084Z,7.58
2018-08-22T19:13:23.907Z,7.25
2018-08-22T19:15:59.745Z,7.97
2018-08-22T19:18:30.248Z,7.67
2018-08-22T19:21:03.602Z,6.35
2018-08-22T19:23:35.129Z,7.80
2018-08-22T19:26:06.417Z,6.97
2018-08-22T19:28:53.141Z,8.65
2018-08-22T19:31:24.183Z,7.80
2018-08-22T19:33:55.248Z,8.55
2018-08-22T19:36:26.102Z,8.55
2018-08-22T19:38:57.419Z,7.93
2018-08-22T19:41:33.347Z,7.53
2018-08-22T19:44:05.625Z,13.70
2018-08-22T19:46:36.666Z,10.28
2018-08-22T19:49:07.708Z,9.03
2018-08-22T19:51:37.910Z,8.20
2018-08-22T19:54:09.947Z,9.08
2018-08-22T19:56:40.212Z,8.38
2018-08-22T19:59:12.047Z,8.37
2018-08-22T20:01:44.069Z,9.50
2018-08-22T20:04:15.730Z,8.18
2018-08-22T20:06:47.695Z,8.40
2018-08-22T20:09:18.669Z,9.25
2018-08-22T20:11:50.002Z,9.05
2018-08-22T20:14:20.349Z,15.03
2018-08-22T20:16:51.196Z,8.73
2018-08-22T20:19:21.818Z,8.68
2018-08-22T20:21:53.233Z,19.73
2018-08-22T20:24:25.049Z,14.80
2018-08-22T20:27:03.886Z,8.60
2018-08-22T20:29:36.119Z,8.50
2018-08-22T20:32:11.027Z,12.50
2018-08-22T20:34:45.373Z,10.48
2018-08-22T20:37:15.516Z,13.68
2018-08-22T20:39:47.497Z,17.20
2018-08-22T20:42:17.953Z,11.07
2018-08-22T20:44:48.980Z,9.10
2018-08-22T20:47:19.284Z,9.35
2018-08-22T20:49:51.402Z,9.10
2018-08-22T20:52:21.678Z,9.43
2018-08-22T20:54:58.282Z,9.43
2018-08-22T20:57:29.680Z,9.45
2018-08-22T21:00:00.935Z,9.25
2018-08-22T21:02:31.741Z,8.68
2018-08-22T21:05:04.236Z,8.98
2018-08-22T21:07:39.239Z,9.50
2018-08-22T21:10:10.019Z,9.25
2018-08-22T21:12:40.998Z,8.78
2018-08-22T21:15:11.699Z,8.78
2018-08-22T21:17:44.778Z,8.93
2018-08-22T21:20:22.918Z,9.78
2018-08-22T21:22:56.625Z,9.93
2018-08-22T21:25:27.472Z,9.90
2018-08-22T21:27:57.721Z,10.13
2018-08-22T21:30:28.105Z,14.25
2018-08-22T21:32:59.558Z,10.68
2018-08-22T21:35:30.159Z,9.90
2018-08-22T21:38:09.897Z,9.50
2018-08-22T21:40:40.530Z,13.75
2018-08-22T21:43:13.047Z,9.58
2018-08-22T21:45:44.156Z,10.30
2018-08-22T21:48:20.826Z,9.00
2018-08-22T21:50:52.223Z,8.30
2018-08-22T21:53:22.517Z,8.10
2018-08-22T21:55:53.994Z,7.60
2018-08-22T21:58:25.231Z,7.67
2018-08-22T22:00:55.337Z,7.30
2018-08-22T22:03:32.364Z,8.25
2018-08-22T22:06:04.903Z,8.05
2018-08-22T22:08:35.201Z,9.30
2018-08-22T22:11:07.597Z,8.60
2018-08-22T22:13:38.258Z,8.30
2018-08-22T22:16:11.327Z,8.18
2018-08-22T22:18:43.346Z,8.33
2018-08-22T22:21:15.058Z,8.30
2018-08-22T22:23:47.461Z,8.50
2018-08-22T22:26:19.186Z,8.35
2018-08-22T22:28:49.725Z,9.78
2018-08-22T22:31:20.885Z,9.15
2018-08-22T22:33:53.847Z,8.30
2018-08-22T22:36:24.120Z,8.50
2018-08-22T22:38:54.198Z,8.20
2018-08-22T22:41:26.543Z,8.68
2018-08-22T22:43:59.057Z,8.15
2018-08-22T22:46:29.697Z,8.50
2018-08-22T22:49:01.643Z,8.13
2018-08-22T22:51:32.022Z,8.68
2018-08-22T22:54:04.391Z,8.13
2018-08-22T22:56:35.043Z,7.85
2018-08-22T22:59:05.818Z,8.43
2018-08-22T23:01:36.411Z,8.17
2018-08-22T23:04:07.708Z,7.95
2018-08-22T23:06:38.166Z,8.13
2018-08-22T23:09:08.243Z,7.65
2018-08-22T23:11:38.425Z,7.97
2018-08-22T23:14:08.982Z,8.33
2018-08-22T23:16:40.278Z,7.90
2018-08-22T23:19:14.298Z,8.10
2018-08-22T23:21:45.034Z,8.18
2018-08-22T23:24:22.835Z,7.90
2018-08-22T23:26:53.570Z,8.18
2018-08-22T23:29:23.982Z,8.08
2018-08-22T23:31:54.880Z,8.27
2018-08-22T23:34:25.387Z,8.10
2018-08-22T23:36:56.714Z,8.18
2018-08-22T23:39:29.679Z,8.40
2018-08-22T23:42:00.738Z,8.53
2018-08-22T23:44:31.379Z,7.95
2018-08-22T23:47:03.116Z,8.23
2018-08-22T23:49:35.754Z,8.17
2018-08-22T23:52:06.867Z,8.25
2018-08-22T23:54:41.168Z,8.10
2018-08-22T23:57:13.025Z,8.20
2018-08-22T23:59:44.084Z,8.30
